createdAt,value
2022-11-15T00:00:37.837Z,31.27
2022-11-15T00:03:42.160Z,38.35
2022-11-15T00:06:46.432Z,41.63
2022-11-15T00:09:50.722Z,38.45
2022-11-15T00:12:55.267Z,40.00
2022-11-15T00:16:01.559Z,40.55
2022-11-15T00:19:06.053Z,43.28
2022-11-15T00:22:10.317Z,40.33
2022-11-15T00:25:14.915Z,38.88
2022-11-15T00:28:19.312Z,40.08
2022-11-15T00:31:23.626Z,37.97
2022-11-15T00:34:28.267Z,43.53
2022-11-15T00:37:32.546Z,42.20
2022-11-15T00:40:36.661Z,43.80
2022-11-15T00:43:43.076Z,41.70
2022-11-15T00:46:47.151Z,39.53
2022-11-15T00:49:51.257Z,44.13
2022-11-15T00:52:55.651Z,41.45
2022-11-15T00:56:00.120Z,46.05
2022-11-15T00:59:04.379Z,46.50
2022-11-15T01:02:08.851Z,44.40
2022-11-15T01:05:13.114Z,47.63
2022-11-15T01:08:17.354Z,45.72
2022-11-15T01:11:21.339Z,50.45
2022-11-15T01:14:25.879Z,46.28
2022-11-15T01:17:31.304Z,46.20
2022-11-15T01:20:35.448Z,46.60
2022-11-15T01:23:40.224Z,47.17
2022-11-15T01:26:44.413Z,45.15
2022-11-15T01:29:48.795Z,46.50
2022-11-15T01:32:53.129Z,47.35
2022-11-15T01:35:57.460Z,48.95
2022-11-15T01:39:01.701Z,42.47
2022-11-15T01:42:05.734Z,45.97
2022-11-15T01:45:16.243Z,45.28
2022-11-15T01:48:21.083Z,45.40
2022-11-15T01:51:29.180Z,44.55
2022-11-15T01:54:33.684Z,46.22
2022-11-15T01:57:39.492Z,48.80
2022-11-15T02:00:43.834Z,46.25
2022-11-15T02:04:16.034Z,46.80
2022-11-15T02:07:22.768Z,44.90
2022-11-15T02:10:27.029Z,62.47
2022-11-15T02:13:31.851Z,55.42
2022-11-15T02:16:41.432Z,46.95
2022-11-15T02:20:06.995Z,49.78
2022-11-15T02:23:43.563Z,47.08
2022-11-15T02:27:22.420Z,46.22
2022-11-15T02:30:48.692Z,53.55
2022-11-15T02:34:22.156Z,50.70
2022-11-15T02:37:37.482Z,50.20
2022-11-15T02:40:53.079Z,52.65
2022-11-15T02:44:20.004Z,52.35
2022-11-15T02:47:28.032Z,47.75
2022-11-15T02:50:33.737Z,52.67
2022-11-15T02:53:38.024Z,58.38
2022-11-15T02:56:45.996Z,55.03
2022-11-15T03:00:10.415Z,54.00
2022-11-15T03:03:48.627Z,54.30
2022-11-15T03:07:00.704Z,53.03
2022-11-15T03:10:13.262Z,53.33
2022-11-15T03:13:27.199Z,54.33
2022-11-15T03:16:38.969Z,54.22
2022-11-15T03:19:47.597Z,51.15
2022-11-15T03:22:53.654Z,55.60
2022-11-15T03:25:59.347Z,54.55
2022-11-15T03:29:17.595Z,50.67
2022-11-15T03:32:26.650Z,48.95
2022-11-15T03:35:42.130Z,53.60
2022-11-15T03:38:46.769Z,52.08
2022-11-15T03:42:23.500Z,50.47
2022-11-15T03:45:42.416Z,49.83
2022-11-15T03:49:06.772Z,56.72
2022-11-15T03:52:12.033Z,48.55
2022-11-15T03:55:21.700Z,49.65
2022-11-15T03:58:26.024Z,47.85
2022-11-15T04:01:30.437Z,49.40
2022-11-15T04:04:34.716Z,41.30
2022-11-15T04:07:39.065Z,42.25
2022-11-15T04:10:43.816Z,41.58
2022-11-15T04:13:48.184Z,44.90
2022-11-15T04:16:52.620Z,42.80
2022-11-15T04:20:15.454Z,44.67
2022-11-15T04:23:40.802Z,38.45
2022-11-15T04:26:45.238Z,41.75
2022-11-15T04:29:49.532Z,38.47
2022-11-15T04:32:54.151Z,37.22
2022-11-15T04:36:16.701Z,34.42
2022-11-15T04:39:21.125Z,43.42
2022-11-15T04:42:25.833Z,40.20
2022-11-15T04:45:30.520Z,36.92
2022-11-15T04:48:34.854Z,37.00
2022-11-15T04:51:39.101Z,34.50
2022-11-15T04:54:43.683Z,35.05
2022-11-15T04:57:47.831Z,34.97
2022-11-15T05:00:52.368Z,30.98
2022-11-15T05:04:15.283Z,29.25
2022-11-15T05:07:19.587Z,29.10
2022-11-15T05:10:23.998Z,31.33
2022-11-15T05:13:28.344Z,29.92
2022-11-15T05:16:32.835Z,29.83
2022-11-15T05:19:37.934Z,31.88
2022-11-15T05:22:42.300Z,25.38
2022-11-15T05:25:46.375Z,32.22
2022-11-15T05:28:58.450Z,28.95
2022-11-15T05:32:04.192Z,26.55
2022-11-15T05:35:13.389Z,24.25
2022-11-15T05:38:17.632Z,28.65
2022-11-15T05:41:47.350Z,27.67
2022-11-15T05:44:51.569Z,25.73
2022-11-15T05:47:59.618Z,25.25
2022-11-15T05:51:05.699Z,26.48
2022-11-15T05:54:11.045Z,31.10
2022-11-15T05:57:15.427Z,23.17
2022-11-15T06:00:20.010Z,28.55
2022-11-15T06:03:24.681Z,24.90
2022-11-15T06:06:29.957Z,23.63
2022-11-15T06:09:34.068Z,22.48
2022-11-15T06:12:38.278Z,21.45
2022-11-15T06:15:42.666Z,23.67
2022-11-15T06:18:47.658Z,25.75
2022-11-15T06:21:51.895Z,23.60
2022-11-15T06:24:56.940Z,23.00
2022-11-15T06:28:03.292Z,21.20
2022-11-15T06:31:12.423Z,22.13
2022-11-15T06:34:16.530Z,22.02
2022-11-15T06:37:20.692Z,22.23
2022-11-15T06:40:25.104Z,22.27
2022-11-15T06:43:29.551Z,20.65
2022-11-15T06:46:33.784Z,22.95
2022-11-15T06:49:37.874Z,22.45
2022-11-15T06:52:42.168Z,24.85
2022-11-15T06:55:46.566Z,23.30
2022-11-15T06:58:50.913Z,22.30
2022-11-15T07:01:55.299Z,18.92
2022-11-15T07:04:59.410Z,20.85
2022-11-15T07:08:03.994Z,19.40
2022-11-15T07:11:09.003Z,19.00
2022-11-15T07:14:13.287Z,21.67
2022-11-15T07:17:17.623Z,22.35
2022-11-15T07:20:22.095Z,18.70
2022-11-15T07:23:26.444Z,19.38
2022-11-15T07:26:31.037Z,19.60
2022-11-15T07:29:35.292Z,20.02
2022-11-15T07:32:39.423Z,20.55
2022-11-15T07:35:43.747Z,17.05
2022-11-15T07:38:47.853Z,16.70
2022-11-15T07:42:12.200Z,17.70
2022-11-15T07:45:16.267Z,18.85
2022-11-15T07:48:21.079Z,18.90
2022-11-15T07:51:25.055Z,18.50
2022-11-15T07:54:29.212Z,17.52
2022-11-15T07:57:33.399Z,20.60
2022-11-15T08:00:38.244Z,24.92
2022-11-15T08:03:42.835Z,19.58
2022-11-15T08:06:47.279Z,19.30
2022-11-15T08:09:51.326Z,22.17
2022-11-15T08:13:04.025Z,19.38
2022-11-15T08:16:09.345Z,19.50
2022-11-15T08:19:13.186Z,16.92
2022-11-15T08:22:18.126Z,20.58
2022-11-15T08:25:22.591Z,16.05
2022-11-15T08:28:26.941Z,17.90
2022-11-15T08:31:31.191Z,23.63
2022-11-15T08:34:35.228Z,20.17
2022-11-15T08:37:39.550Z,20.25
2022-11-15T08:40:44.022Z,18.65
2022-11-15T08:43:48.502Z,15.32
2022-11-15T08:46:53.204Z,18.25
2022-11-15T08:49:57.280Z,18.58
2022-11-15T08:53:09.518Z,20.50
2022-11-15T08:56:15.560Z,19.65
2022-11-15T08:59:20.020Z,16.88
2022-11-15T09:02:24.616Z,19.25
2022-11-15T09:05:28.902Z,17.42
2022-11-15T09:08:47.106Z,14.63
2022-11-15T09:11:52.521Z,14.18
2022-11-15T09:14:56.659Z,16.52
2022-11-15T09:18:01.175Z,13.98
2022-11-15T09:21:05.628Z,13.07
2022-11-15T09:24:10.047Z,13.77
2022-11-15T09:27:14.520Z,13.05
2022-11-15T09:30:18.704Z,11.85
2022-11-15T09:33:22.994Z,14.57
2022-11-15T09:36:27.453Z,11.20
2022-11-15T09:39:32.384Z,10.55
2022-11-15T09:43:07.043Z,9.63
2022-11-15T09:46:34.491Z,10.77
2022-11-15T09:49:38.568Z,11.43
2022-11-15T09:52:46.378Z,8.43
2022-11-15T09:56:01.141Z,10.10
2022-11-15T09:59:14.269Z,8.60
2022-11-15T10:04:55.121Z,8.85
2022-11-15T10:08:11.834Z,10.90
2022-11-15T10:11:36.265Z,8.25
2022-11-15T10:14:18.073Z,8.10
2022-11-15T10:17:41.275Z,7.57
2022-11-15T10:23:19.311Z,7.03
2022-11-15T10:26:10.156Z,6.57
2022-11-15T10:28:55.692Z,7.35
2022-11-15T10:31:42.361Z,7.63
2022-11-15T10:34:27.990Z,7.35
2022-11-15T10:37:13.338Z,8.18
2022-11-15T10:40:07.476Z,9.18
2022-11-15T10:43:13.752Z,7.40
2022-11-15T10:46:44.943Z,7.93
2022-11-15T10:49:32.359Z,9.73
2022-11-15T10:52:20.705Z,6.40
2022-11-15T10:55:17.983Z,9.23
2022-11-15T10:58:20.908Z,8.93
2022-11-15T11:04:03.487Z,9.32
2022-11-15T11:06:53.279Z,6.30
2022-11-15T11:09:43.191Z,7.80
2022-11-15T11:12:32.423Z,6.40
2022-11-15T11:15:19.423Z,7.57
2022-11-15T11:18:16.355Z,7.82
2022-11-15T11:21:10.560Z,7.60
2022-11-15T11:24:05.987Z,5.25
2022-11-15T11:27:06.711Z,5.22
2022-11-15T11:30:01.843Z,8.07
2022-11-15T11:33:06.515Z,5.20
2022-11-15T11:36:07.746Z,5.82
2022-11-15T11:38:55.914Z,7.60
2022-11-15T11:41:50.731Z,5.55
2022-11-15T11:44:59.125Z,6.75
2022-11-15T11:48:07.958Z,4.47
2022-11-15T11:50:58.044Z,5.32
2022-11-15T11:53:58.232Z,6.10
2022-11-15T11:56:46.334Z,4.07
2022-11-15T11:59:44.288Z,4.70
2022-11-15T12:02:35.772Z,4.38
2022-11-15T12:05:33.335Z,5.83
2022-11-15T12:08:32.997Z,3.95
2022-11-15T12:11:31.648Z,6.32
2022-11-15T12:14:34.884Z,4.30
2022-11-15T12:17:27.552Z,5.32
2022-11-15T12:23:13.638Z,4.53
2022-11-15T12:26:06.735Z,4.53
2022-11-15T12:29:08.825Z,5.22
2022-11-15T12:31:59.121Z,3.58
2022-11-15T12:34:50.409Z,5.32
2022-11-15T12:37:38.967Z,4.13
2022-11-15T12:40:33.902Z,7.82
2022-11-15T12:43:34.237Z,4.88
2022-11-15T12:46:30.444Z,4.05
2022-11-15T12:49:24.719Z,6.72
2022-11-15T12:52:11.005Z,3.72
2022-11-15T12:54:58.363Z,4.57
2022-11-15T12:57:43.959Z,4.25
2022-11-15T13:00:32.437Z,6.75
2022-11-15T13:03:21.365Z,5.60
2022-11-15T13:06:09.100Z,4.22
2022-11-15T13:08:54.390Z,3.88
2022-11-15T13:11:49.036Z,4.28
2022-11-15T13:14:43.436Z,4.38
2022-11-15T13:17:38.650Z,3.00
2022-11-15T13:20:27.397Z,5.10
2022-11-15T13:23:17.557Z,5.90
2022-11-15T13:26:19.028Z,4.47
2022-11-15T13:29:04.400Z,5.13
2022-11-15T13:31:50.070Z,3.80
2022-11-15T13:34:51.128Z,6.70
2022-11-15T13:37:37.474Z,5.93
2022-11-15T13:40:31.108Z,6.07
2022-11-15T13:43:22.494Z,4.20
2022-11-15T13:46:14.003Z,4.75
2022-11-15T13:49:09.615Z,5.43
2022-11-15T13:51:55.899Z,4.03
2022-11-15T13:55:15.482Z,4.72
2022-11-15T13:58:07.616Z,5.20
2022-11-15T14:01:02.977Z,8.43
2022-11-15T14:03:58.267Z,4.10
2022-11-15T14:06:54.342Z,4.53
2022-11-15T14:09:41.241Z,5.78
2022-11-15T14:12:30.893Z,4.63
2022-11-15T14:15:35.789Z,4.25
2022-11-15T14:18:43.672Z,6.53
2022-11-15T14:21:29.056Z,5.07
2022-11-15T14:24:20.500Z,3.72
2022-11-15T14:27:27.132Z,6.32
2022-11-15T14:30:17.400Z,4.18
2022-11-15T14:33:03.621Z,3.97
2022-11-15T14:35:49.587Z,4.30
2022-11-15T14:38:35.850Z,3.10
2022-11-15T14:41:23.848Z,5.15
2022-11-15T14:44:11.894Z,4.50
2022-11-15T14:46:57.424Z,3.72
2022-11-15T14:49:42.891Z,7.15
2022-11-15T14:52:34.257Z,4.65
2022-11-15T14:55:24.167Z,5.65
2022-11-15T14:58:10.130Z,4.05
2022-11-15T15:00:55.613Z,3.97
2022-11-15T15:03:41.304Z,3.75
2022-11-15T15:06:27.100Z,6.40
2022-11-15T15:09:12.191Z,5.30
2022-11-15T15:11:59.760Z,3.97
2022-11-15T15:14:49.254Z,5.47
2022-11-15T15:17:34.472Z,4.30
2022-11-15T15:20:20.095Z,3.88
2022-11-15T15:23:05.352Z,7.07
2022-11-15T15:25:51.432Z,4.43
2022-11-15T15:28:37.512Z,5.38
2022-11-15T15:31:22.999Z,3.67
2022-11-15T15:34:13.674Z,6.55
2022-11-15T15:37:27.136Z,4.78
2022-11-15T15:40:18.994Z,4.78
2022-11-15T15:43:04.443Z,4.03
2022-11-15T15:45:49.611Z,4.43
2022-11-15T15:48:38.073Z,3.30
2022-11-15T15:51:23.261Z,5.57
2022-11-15T15:54:08.670Z,5.03
2022-11-15T15:56:56.259Z,3.22
2022-11-15T15:59:42.119Z,3.67
2022-11-15T16:02:27.552Z,3.03
2022-11-15T16:05:13.518Z,3.92
2022-11-15T16:07:58.710Z,3.60
2022-11-15T16:10:44.134Z,4.43
2022-11-15T16:13:29.594Z,4.53
2022-11-15T16:16:15.466Z,4.78
2022-11-15T16:19:01.735Z,3.95
2022-11-15T16:21:47.557Z,4.78
2022-11-15T16:24:32.836Z,4.63
2022-11-15T16:27:21.159Z,3.85
2022-11-15T16:30:15.238Z,5.20
2022-11-15T16:33:01.464Z,4.93
2022-11-15T16:35:48.755Z,6.47
2022-11-15T16:38:34.869Z,3.70
2022-11-15T16:41:20.279Z,3.05
2022-11-15T16:44:05.819Z,2.65
2022-11-15T16:46:52.141Z,3.50
2022-11-15T16:49:37.994Z,4.18
2022-11-15T16:52:23.397Z,3.72
2022-11-15T16:55:09.141Z,2.92
2022-11-15T16:57:55.204Z,4.00
2022-11-15T17:00:40.847Z,3.60
2022-11-15T17:03:26.276Z,4.00
2022-11-15T17:06:12.826Z,3.60
2022-11-15T17:08:58.258Z,2.90
2022-11-15T17:11:44.213Z,3.22
2022-11-15T17:14:29.636Z,3.90
2022-11-15T17:17:15.174Z,3.72
2022-11-15T17:20:00.475Z,3.63
2022-11-15T17:22:47.350Z,3.28
2022-11-15T17:25:32.724Z,4.38
2022-11-15T17:28:18.634Z,3.55
2022-11-15T17:31:08.182Z,3.80
2022-11-15T17:33:54.014Z,4.00
2022-11-15T17:36:39.286Z,4.35
2022-11-15T17:39:25.063Z,4.45
2022-11-15T17:42:10.109Z,3.88
2022-11-15T17:44:55.592Z,4.93
2022-11-15T17:47:40.814Z,5.45
2022-11-15T17:50:26.271Z,7.38
2022-11-15T17:53:11.854Z,6.00
2022-11-15T17:56:27.579Z,5.85
2022-11-15T17:59:15.938Z,4.45
2022-11-15T18:02:06.288Z,4.00
2022-11-15T18:04:51.280Z,3.83
2022-11-15T18:07:36.609Z,7.63
2022-11-15T18:10:22.180Z,7.45
2022-11-15T18:13:09.521Z,6.25
2022-11-15T18:16:02.430Z,5.38
2022-11-15T18:18:48.467Z,4.40
2022-11-15T18:21:34.457Z,6.60
2022-11-15T18:24:19.762Z,8.55
2022-11-15T18:27:06.443Z,5.88
2022-11-15T18:29:51.593Z,7.43
2022-11-15T18:32:37.067Z,6.40
2022-11-15T18:35:22.521Z,6.35
2022-11-15T18:38:07.975Z,5.63
2022-11-15T18:40:53.246Z,5.03
2022-11-15T18:43:39.693Z,5.93
2022-11-15T18:46:27.264Z,5.40
2022-11-15T18:49:15.118Z,10.40
2022-11-15T18:52:00.317Z,6.38
2022-11-15T18:54:45.554Z,5.88
2022-11-15T18:57:31.117Z,7.18
2022-11-15T19:00:16.931Z,6.97
2022-11-15T19:03:02.439Z,5.47
2022-11-15T19:05:47.809Z,6.50
2022-11-15T19:08:37.611Z,5.22
2022-11-15T19:11:31.643Z,6.10
2022-11-15T19:14:18.064Z,5.82
2022-11-15T19:17:03.489Z,8.13
2022-11-15T19:19:48.755Z,8.73
2022-11-15T19:22:34.274Z,8.68
2022-11-15T19:25:19.679Z,6.90
2022-11-15T19:28:05.519Z,7.63
2022-11-15T19:30:50.968Z,7.10
2022-11-15T19:33:36.913Z,7.75
2022-11-15T19:36:26.825Z,6.50
2022-11-15T19:39:13.461Z,6.88
2022-11-15T19:41:58.747Z,7.72
2022-11-15T19:44:44.108Z,8.82
2022-11-15T19:47:30.347Z,7.05
2022-11-15T19:50:15.832Z,11.52
2022-11-15T19:53:00.990Z,10.30
2022-11-15T19:55:57.146Z,7.30
2022-11-15T19:58:42.955Z,9.48
2022-11-15T20:01:30.178Z,9.75
2022-11-15T20:04:15.971Z,9.07
2022-11-15T20:07:01.688Z,8.55
2022-11-15T20:09:47.151Z,10.20
2022-11-15T20:12:32.573Z,8.85
2022-11-15T20:15:17.931Z,11.73
2022-11-15T20:18:04.191Z,9.10
2022-11-15T20:20:50.483Z,9.57
2022-11-15T20:23:35.773Z,12.88
2022-11-15T20:26:21.422Z,11.30
2022-11-15T20:29:08.460Z,9.75
2022-11-15T20:31:53.809Z,9.07
2022-11-15T20:34:39.315Z,11.00
2022-11-15T20:37:24.767Z,10.32
2022-11-15T20:40:10.887Z,9.70
2022-11-15T20:42:56.326Z,10.25
2022-11-15T20:45:50.338Z,11.27
2022-11-15T20:48:35.844Z,10.52
2022-11-15T20:51:21.583Z,10.73
2022-11-15T20:54:06.894Z,10.38
2022-11-15T20:56:52.521Z,11.40
2022-11-15T20:59:37.977Z,12.60
2022-11-15T21:02:23.442Z,12.52
2022-11-15T21:05:09.038Z,11.80
2022-11-15T21:07:54.225Z,10.57
2022-11-15T21:10:59.301Z,11.70
2022-11-15T21:13:44.811Z,11.15
2022-11-15T21:16:30.354Z,10.77
2022-11-15T21:19:16.368Z,12.60
2022-11-15T21:22:02.290Z,10.43
2022-11-15T21:24:47.545Z,10.35
2022-11-15T21:27:33.023Z,12.40
2022-11-15T21:30:18.335Z,9.88
2022-11-15T21:33:03.774Z,12.50
2022-11-15T21:35:50.520Z,10.73
2022-11-15T21:38:36.135Z,11.75
2022-11-15T21:41:21.911Z,11.10
2022-11-15T21:44:07.127Z,11.10
2022-11-15T21:46:52.693Z,11.35
2022-11-15T21:49:38.199Z,11.20
2022-11-15T21:52:23.844Z,9.20
2022-11-15T21:55:09.663Z,11.60
2022-11-15T21:57:54.734Z,9.88
2022-11-15T22:00:58.998Z,14.07
2022-11-15T22:03:44.490Z,11.25
2022-11-15T22:06:29.761Z,11.20
2022-11-15T22:09:15.402Z,10.93
2022-11-15T22:12:00.905Z,12.90
2022-11-15T22:14:46.347Z,11.60
2022-11-15T22:17:50.402Z,11.93
2022-11-15T22:20:44.882Z,10.98
2022-11-15T22:23:32.588Z,10.60
2022-11-15T22:26:23.517Z,10.90
2022-11-15T22:29:09.538Z,11.95
2022-11-15T22:31:54.924Z,11.13
2022-11-15T22:34:40.372Z,11.15
2022-11-15T22:37:25.768Z,12.00
2022-11-15T22:40:11.354Z,11.63
2022-11-15T22:42:56.927Z,10.93
2022-11-15T22:45:51.599Z,11.10
2022-11-15T22:48:39.009Z,10.40
2022-11-15T22:51:24.432Z,11.23
2022-11-15T22:54:09.772Z,11.55
2022-11-15T22:56:55.291Z,10.65
2022-11-15T22:59:42.044Z,12.77
2022-11-15T23:02:27.246Z,11.73
2022-11-15T23:05:12.812Z,11.48
2022-11-15T23:07:58.215Z,12.85
2022-11-15T23:11:02.464Z,13.05
2022-11-15T23:13:51.706Z,12.13
2022-11-15T23:16:36.787Z,11.45
2022-11-15T23:19:22.163Z,11.07
2022-11-15T23:22:36.903Z,10.95
2022-11-15T23:25:21.884Z,12.80
2022-11-15T23:28:07.352Z,12.20
2022-11-15T23:31:11.332Z,11.30
2022-11-15T23:33:59.606Z,11.93
2022-11-15T23:36:44.687Z,10.90
2022-11-15T23:39:30.583Z,11.60
2022-11-15T23:42:19.781Z,11.40
2022-11-15T23:45:06.176Z,13.57
2022-11-15T23:47:55.728Z,10.77
2022-11-15T23:50:46.128Z,11.70
2022-11-15T23:53:31.484Z,12.50
2022-11-15T23:56:18.576Z,11.52
2022-11-15T23:59:04.794Z,12.20
